< Cyclone 198805 1989 Season Cyclone 198902 >
Cyclone 198901 (ILONA)
General InformationTrack Information on Google MapsDetailed Wind InformationList of All Images || ResourceGoogle EarthGE AnimationAtom FeedGeoJSON
Detalied Best Track (Time Zone = UTC)
Year Month Day Hour Lat. Long. Pressure (hPa) Wind (kt) Class Image Chart
1988 12 12 00 -11.9 128.3 1000 25 2 Image --
1988 12 12 03 -12.5 127.6 1000 25 2 Image --
1988 12 12 06 -13.1 126.8 998 29 2 Image --
1988 12 12 09 -13.7 126.3 998 29 2 Image --
1988 12 12 12 -14.4 125.7 997 31 2 Image --
1988 12 12 15 -14.9 124.7 997 31 2 Image --
1988 12 12 18 -15.2 124.1 997 31 2 Image --
1988 12 13 00 -15.8 122.8 996 33 2 Image --
1988 12 13 06 -16.2 121.6 995 35 3 Image --
1988 12 13 12 -16.6 120.6 994 35 3 Image --
1988 12 13 18 -16.6 119.7 993 37 3 Image --
1988 12 14 00 -16.4 118.5 992 39 3 Image --
1988 12 14 06 -16.2 117.3 991 41 3 Image --
1988 12 14 12 -16.1 116.6 988 43 3 Image --
1988 12 14 18 -16.0 116.2 984 49 4 Image --
1988 12 15 00 -16.0 115.8 980 53 4 Image --
1988 12 15 03 -15.9 115.6 977 56 4 Image --
1988 12 15 06 -16.1 115.5 974 58 4 Image --
1988 12 15 09 -16.1 115.4 972 62 4 Image --
1988 12 15 12 -16.2 115.3 970 64 5 Image --
1988 12 15 15 -16.3 115.3 970 64 5 Image --
1988 12 15 18 -16.4 115.2 969 64 5 Image --
1988 12 16 00 -16.7 115.2 967 66 5 Image --
1988 12 16 06 -16.9 115.2 965 68 5 Image --
1988 12 16 12 -17.3 115.3 964 70 5 Image --
1988 12 16 18 -17.7 115.3 962 70 5 Image --
1988 12 17 00 -18.2 115.4 960 72 5 Image --
1988 12 17 06 -19.1 115.7 960 72 5 Image --
1988 12 17 12 -20.1 116.0 960 72 5 Image --
1988 12 17 15 -20.8 116.0 960 72 5 Image --
1988 12 17 18 -21.5 116.2 965 68 5 Image --
1988 12 17 21 -22.2 116.4 970 64 5 Image --
1988 12 18 00 -23.1 116.8 975 58 4 Image --
1988 12 18 06 -24.6 117.7 985 47 3 Image --
1988 12 18 12 -25.8 119.1 995 35 3 Image --
1988 12 18 18 -26.3 120.3 996 33 2 Image --
1988 12 19 00 -26.3 121.8 998 29 2 Image --
1988 12 19 06 -26.5 123.7 998 29 2 Image --
1988 12 19 12 -26.6 125.7 999 27 2 Image --
1988 12 19 16 -26.6 127.0 1000 25 2 Image --
< Cyclone 198805 1989 Season Cyclone 198902 >

Help